Terminal Aerodrome Forecast
Issued by NWS

Home | Current Version | Previous Version | Graphics & Text | Print | Product List | Glossary On
Versions: 1 2 3 4 5 6 7 8 9 10 11 12 13 14 15 16 17 18
000
FTUS41 KCLE 221100
TAFFDY
TAF
KFDY 221130Z 2212/2312 27012KT 5SM BR SCT007 OVC015
     FM221400 30015KT P6SM BKN012
     FM221600 31018G26KT P6SM BKN025
     FM221900 31020G30KT P6SM BKN035
     FM230100 32011KT P6SM SCT030=

USA.gov is the U.S. government's official web portal to all federal, state and local government web resources and services.